Estació municipal de Les Masies de Roda (Osona, Ter)

Consulta les dades en temps real de l'estació municipal de Les Masies de Roda





Hora UTC 15:05
Temperatura 32.5 ºC
Sòl 15 cm 37.6 ºC
Humitat 34.0 %
Pressió 1019.6 hPa
Pluja 0.0 mm
Velocitat vent 19.4 km/h
Direcció vent S
Radiació solar 47.0 W/m²

Dades diàries 2026-09-02



Hora UTC (hivern +1h; estiu +2h)
Temperatura (ºC) Humitat (%) Pressió (hPa) Velocitat vent (km/h) Precipitació (mm) Radiació solar (W/m²)
Hora UTC Aire Sòl 15 cm Humitat Pressió Vel. Dir. Vel. Max Dir. Intent. màx 5 min. Rad. Sol.
00:05 18.5 16.0 87.5 1020.6 0.6 ENE 0.6 ENE 0.0 7.6
00:10 18.1 15.9 88.4 1020.6 0.0 NNE 0.0 ENE 0.0 7.7
00:15 18.1 15.7 90.3 1020.6 3.3 SSE 4.6 SSE 0.0 6.7
00:20 18.3 15.7 89.1 1020.6 0.1 SE 2.5 SE 0.0 7.5
00:25 18.1 15.7 89.9 1020.6 0.0 NNE 0.0 SE 0.0 157.4
00:30 18.0 15.7 90.1 1020.7 0.1 SW 2.8 SW 0.0 197.7
00:35 17.7 15.6 90.2 1020.7 1.4 WSW 2.5 SW 0.0 204.6
00:40 17.8 15.5 91.5 1020.8 0.2 NW 1.8 WNW 0.0 215.9
00:45 18.1 15.5 91.1 1020.7 0.3 SE 3.2 SE 0.0 207.4
00:50 18.1 15.6 89.7 1020.8 0.0 ESE 1.4 SE 0.0 210.3
00:55 17.8 15.5 90.2 1020.7 0.0 NNE 0.0 S 0.0 226.7
01:00 17.8 15.5 91.3 1020.7 0.1 NNE 1.8 NNE 0.0 217.7
01:05 17.6 15.3 90.0 1020.5 0.0 NNE 0.0 N 0.0 180.0
01:10 17.3 15.2 90.4 1020.7 0.0 NNE 0.0 N 0.0 182.8
01:15 17.1 15.1 91.5 1020.5 0.0 NNE 0.0 N 0.0 267.9
01:20 17.2 15.1 91.8 1020.7 0.0 NNE 0.0 N 0.0 275.9
01:25 17.0 15.0 91.8 1020.5 0.0 NNE 0.0 N 0.0 283.4
01:30 16.9 14.9 92.5 1020.7 0.0 NNE 0.0 N 0.0 270.1
01:35 17.1 14.9 93.3 1020.6 0.0 NNE 0.0 N 0.0 294.3
01:40 17.1 14.9 93.3 1020.6 0.0 NNE 0.0 NNE 0.0 290.6
01:45 17.2 15.0 92.9 1020.6 0.3 NNE 2.1 NNE 0.0 308.5
01:50 17.0 15.0 92.4 1020.7 0.0 NNE 0.0 NNE 0.0 300.3
01:55 16.9 14.9 93.1 1020.6 0.3 NW 2.1 NW 0.0 325.6
02:00 16.7 14.7 93.3 1020.7 0.0 NNE 0.0 NW 0.0 317.3
02:05 16.6 14.7 93.5 1020.6 0.4 NE 2.1 NE 0.0 325.0
02:10 16.7 14.6 94.2 1020.6 1.8 ENE 3.5 ENE 0.0 317.0
02:15 16.7 14.6 93.9 1020.6 2.1 NE 3.2 ENE 0.0 332.7
02:20 16.6 14.6 93.9 1020.6 1.1 ENE 2.8 ENE 0.0 311.4
02:25 16.7 14.7 93.9 1020.7 0.0 NNE 0.0 NE 0.0 324.0
02:30 16.4 14.6 93.0 1020.6 0.5 N 2.1 N 0.0 298.3
02:35 16.4 14.4 93.8 1020.7 0.0 NNE 0.0 N 0.0 297.9
02:40 16.5 14.4 94.3 1020.6 0.0 NNE 0.0 N 0.0 313.0
02:45 16.6 14.4 94.5 1020.7 0.0 NNE 0.0 N 0.0 297.9
02:50 16.5 14.4 94.1 1020.6 0.0 NNE 0.0 N 0.0 310.4
02:55 16.4 14.3 94.4 1020.7 0.0 NNE 0.0 N 0.0 299.9
03:00 16.4 14.3 94.7 1020.6 0.0 NNE 0.0 N 0.0 290.0
03:05 16.2 14.3 94.6 1020.7 0.0 NNE 0.0 N 0.0 310.6
03:10 16.2 14.2 95.1 1020.6 0.0 NNE 0.0 N 0.0 311.4
03:15 16.3 14.2 95.1 1020.7 0.0 NNE 0.0 N 0.0 357.3
03:20 16.2 14.3 94.6 1020.7 0.0 NNE 0.0 N 0.0 303.8
03:25 16.0 14.3 94.1 1020.7 0.7 N 3.2 N 0.0 305.5
03:30 15.9 14.2 94.1 1020.6 0.7 NW 3.2 NW 0.0 308.0
03:35 15.8 14.0 94.0 1020.8 0.0 NNE 0.0 NW 0.0 313.9
03:40 15.7 13.8 94.7 1020.7 0.0 NNE 0.0 NW 0.0 299.4
03:45 15.9 13.7 95.1 1020.8 0.0 NNE 0.0 NW 0.0 301.7
03:50 15.9 13.8 95.3 1020.7 0.0 NNE 0.0 NW 0.0 314.0
03:55 15.9 13.8 95.6 1020.7 0.0 NNE 0.0 NW 0.0 337.7
04:00 15.9 13.7 95.6 1020.6 0.0 NNE 0.0 NW 0.0 311.6
04:05 15.9 13.8 95.6 1020.7 0.0 NNE 0.0 NW 0.0 319.3
04:10 15.9 13.8 95.4 1020.6 0.0 NNE 0.0 NW 0.0 315.6
04:15 15.9 13.8 95.6 1020.7 0.0 NNE 0.0 NW 0.0 321.5
04:20 15.8 13.8 95.1 1020.6 0.0 NNE 0.0 NW 0.0 329.0
04:25 15.6 13.7 94.9 1020.7 0.0 NNE 0.0 NW 0.0 315.7
04:30 15.6 13.5 95.3 1020.5 1.9 ENE 4.2 ENE 0.0 302.8
04:35 15.8 13.6 95.5 1020.6 0.0 NNE 0.0 ENE 0.0 313.1
04:40 15.6 13.6 95.2 1020.6 0.0 NNE 0.0 ENE 0.0 314.3
04:45 15.5 13.6 95.4 1020.7 0.0 NNE 0.0 NW 0.0 301.2
04:50 15.6 13.5 95.6 1020.6 0.0 NNE 0.0 NW 0.0 319.2
04:55 15.6 13.4 95.7 1020.7 0.0 NNE 0.0 NW 0.0 312.3
05:00 15.7 13.4 96.0 1020.6 0.0 NNE 0.0 NW 0.0 303.2
05:05 15.6 13.5 95.7 1020.6 0.0 NNE 0.0 NW 0.0 340.6
05:10 15.4 13.5 95.5 1020.7 0.0 NNE 0.0 NE 0.0 312.2
05:15 15.3 13.4 95.4 1020.7 0.0 NNE 0.0 NE 0.0 295.1
05:20 15.4 13.3 95.8 1020.7 0.0 NNE 0.0 NE 0.0 299.7
05:25 15.3 13.4 95.6 1020.7 0.0 NNE 0.0 NE 0.0 304.3
05:30 15.2 13.3 95.5 1020.8 0.0 NNE 0.0 NE 0.0 303.7
05:35 15.3 13.4 96.0 1020.8 0.0 NNE 0.0 E 0.0 310.5
05:40 15.5 13.6 95.9 1020.9 0.0 NNE 0.0 NE 0.0 279.5
05:45 15.4 13.6 95.8 1020.9 0.0 NNE 0.0 NNE 0.0 295.5
05:50 15.3 13.6 95.6 1021.0 0.0 NNE 0.0 NNE 0.0 292.8
05:55 15.5 13.7 96.1 1020.9 0.0 NNE 0.0 WSW 0.0 314.2
06:00 15.7 14.0 96.4 1021.0 0.0 NNE 0.0 WSW 0.0 315.8
06:05 15.9 14.2 96.3 1021.0 0.0 NNE 0.0 WSW 0.0 331.5
06:10 16.0 14.5 96.1 1021.1 0.0 NNE 0.0 WSW 0.0 325.1
06:15 16.3 14.8 96.2 1021.1 0.0 NNE 0.0 WSW 0.0 323.9
06:20 16.5 15.2 95.9 1021.3 0.0 NNE 0.0 WSW 0.0 357.7
06:25 16.8 15.7 95.3 1021.3 0.0 NNE 0.0 WNW 0.0 356.5
06:30 17.0 16.2 94.7 1021.3 0.0 NNE 0.0 SW 0.0 225.6
06:35 17.3 16.6 93.0 1021.4 0.0 NNE 0.0 SSW 0.0 113.0
06:40 17.7 17.0 91.1 1021.4 0.0 NNE 0.0 SW 0.0 9.4
06:45 17.9 17.2 89.0 1021.5 0.0 NNE 0.0 N 0.0 11.7
06:50 18.2 17.5 87.6 1021.4 0.0 NNE 0.0 NE 0.0 12.5
06:55 18.6 17.8 85.8 1021.5 0.0 NNE 0.0 NNE 0.0 9.7
07:00 19.1 18.2 83.9 1021.4 0.0 NNE 0.0 ENE 0.0 12.6
07:05 19.2 18.6 83.0 1021.6 1.9 SSE 5.7 SE 0.0 16.6
07:10 19.5 18.9 82.5 1021.4 2.0 SSE 5.7 S 0.0 20.5
07:15 19.8 19.3 81.4 1021.5 3.4 SE 6.0 S 0.0 18.9
07:20 20.1 19.8 81.4 1021.5 3.8 S 6.0 SSE 0.0 21.9
07:25 20.3 20.4 80.2 1021.5 3.6 SSE 5.7 SSE 0.0 24.4
07:30 20.4 20.9 80.8 1021.6 1.8 SSW 6.0 S 0.0 24.5
07:35 20.9 21.5 79.0 1021.5 3.7 SSW 5.7 SSW 0.0 23.2
07:40 21.0 22.1 77.9 1021.6 3.3 SSW 5.3 S 0.0 32.7
07:45 21.3 22.7 76.5 1021.4 3.1 SSW 6.0 SSW 0.0 34.1
07:50 21.6 23.2 74.3 1021.5 1.1 W 4.2 SSE 0.0 30.6
07:55 22.1 23.8 72.6 1021.5 1.7 W 3.5 S 0.0 35.0
08:00 22.1 24.3 72.4 1021.6 0.7 NNW 3.5 NNW 0.0 53.2
08:05 22.6 24.9 71.7 1021.6 3.3 S 5.3 S 0.0 60.1
08:10 22.7 25.4 70.2 1021.6 2.3 S 4.2 SSE 0.0 48.5
08:15 22.9 25.9 69.0 1021.7 0.9 SE 3.2 ESE 0.0 62.5
08:20 23.5 26.4 67.8 1021.5 2.5 SSW 6.0 S 0.0 72.1
08:25 23.7 27.0 66.2 1021.7 1.8 SSW 5.3 S 0.0 88.5
08:30 23.6 27.3 65.5 1021.6 1.4 SSE 4.6 SSW 0.0 88.4
08:35 23.8 27.6 65.3 1021.6 0.8 WNW 3.2 W 0.0 69.8
08:40 24.2 28.2 64.7 1021.7 2.3 NW 4.6 WNW 0.0 94.8
08:45 24.2 28.5 63.4 1021.5 1.8 NNW 5.0 N 0.0 61.3
08:50 24.4 28.9 62.2 1021.7 2.5 SSE 5.7 S 0.0 68.4
08:55 24.5 29.4 61.4 1021.6 3.3 SE 7.1 SE 0.0 67.8
09:00 25.1 30.0 60.0 1021.6 1.1 ENE 5.7 ENE 0.0 61.8
09:05 25.6 30.7 56.8 1021.8 2.7 ESE 5.7 E 0.0 67.1
09:10 25.9 31.2 56.5 1021.6 3.1 SSW 6.0 SSW 0.0 75.8
09:15 26.5 31.8 55.3 1021.6 3.9 SSW 5.7 SSW 0.0 63.0
09:20 26.5 32.4 54.6 1021.7 2.2 SW 5.3 SW 0.0 24.2
09:25 26.5 32.7 54.4 1021.7 1.2 W 7.4 WNW 0.0 58.5
09:30 27.3 33.1 50.6 1021.6 1.0 ENE 2.8 ENE 0.0 55.2
09:35 27.4 33.9 51.0 1021.8 1.7 S 5.3 S 0.0 42.8
09:40 27.9 34.2 50.0 1021.7 1.5 S 5.0 SSW 0.0 46.3
09:45 27.9 34.5 47.6 1021.5 2.2 N 4.6 NW 0.0 55.5
09:50 28.0 34.8 48.1 1021.7 3.0 S 6.7 SW 0.0 56.7
09:55 28.6 35.4 46.1 1021.7 5.0 SW 8.1 S 0.0 36.0
10:00 28.8 35.8 45.7 1021.6 3.0 SW 6.7 SSW 0.0 69.2
10:05 29.2 36.1 41.8 1021.5 2.6 SE 7.8 SSW 0.0 74.4
10:10 29.4 36.6 43.0 1021.5 4.7 SSW 9.5 SW 0.0 81.1
10:15 29.6 37.0 42.1 1021.6 4.8 SSW 7.4 SSE 0.0 95.6
10:20 29.5 37.1 41.9 1021.4 4.9 SSE 8.8 S 0.0 90.9
10:25 29.8 37.2 42.0 1021.3 5.7 S 8.8 S 0.0 72.0
10:30 29.7 37.3 41.2 1021.3 4.5 S 10.3 SSW 0.0 50.3
10:35 30.0 37.5 39.9 1021.4 3.8 S 7.4 W 0.0 85.9
10:40 30.4 38.0 40.2 1021.4 4.2 W 7.4 W 0.0 80.3
10:45 30.7 38.4 38.5 1021.2 5.0 SW 7.4 SW 0.0 84.0
10:50 30.8 38.8 37.3 1021.1 3.9 SE 8.8 ESE 0.0 95.6
10:55 30.5 38.9 38.0 1021.0 4.8 SE 8.8 NNE 0.0 76.7
11:00 30.1 38.6 38.2 1021.1 4.6 N 8.1 NNE 0.0 91.4
11:05 30.4 38.4 37.8 1021.1 3.6 NE 7.1 NNE 0.0 75.3
11:10 31.0 38.7 38.9 1021.0 5.9 SW 13.4 SW 0.0 82.0
11:15 31.5 39.3 38.0 1020.9 5.2 SW 8.8 SW 0.0 90.5
11:20 31.5 39.7 36.7 1020.8 4.7 NNE 9.5 NE 0.0 77.3
11:25 30.9 39.5 36.8 1020.8 3.6 N 7.8 NW 0.0 84.8
11:30 30.8 39.1 38.4 1020.8 6.1 SSW 12.7 S 0.0 77.6
11:35 31.3 39.2 36.8 1020.8 5.0 S 10.3 SSE 0.0 94.8
11:40 31.6 39.7 36.8 1020.8 6.4 S 14.5 ESE 0.0 91.2
11:45 31.6 40.0 35.0 1020.6 5.4 ENE 11.0 E 0.0 84.1
11:50 31.5 40.1 34.8 1020.5 5.0 ESE 12.0 SE 0.0 73.1
11:55 32.0 40.3 34.3 1020.4 4.9 SSE 11.3 SSW 0.0 86.3
12:00 32.8 41.0 32.9 1020.4 3.5 WSW 9.2 WSW 0.0 75.8
12:05 32.6 41.5 33.6 1020.4 4.3 S 7.8 SSW 0.0 73.7
12:10 32.9 41.7 33.3 1020.5 7.4 S 15.5 SE 0.0 84.3
12:15 33.0 41.9 32.8 1020.4 3.4 WNW 7.4 SSW 0.0 79.1
12:20 33.3 42.3 33.7 1020.2 4.5 SSE 9.5 SW 0.0 72.1
12:25 33.7 42.6 32.8 1020.1 4.6 S 12.7 SSW 0.0 80.7
12:30 33.3 42.5 33.7 1020.0 8.1 SE 20.1 S 0.0 87.1
12:35 33.7 42.3 33.1 1020.0 6.8 SSW 17.0 S 0.0 51.8
12:40 33.9 42.6 33.4 1020.0 8.7 SSE 16.2 SSW 0.0 74.1
12:45 34.2 42.7 32.4 1020.0 8.2 SSW 14.8 SSW 0.0 74.9
12:50 34.2 42.9 31.1 1020.0 9.0 S 19.1 SW 0.0 63.5
12:55 34.4 42.8 30.6 1019.9 10.6 S 18.4 S 0.0 75.5
13:00 34.6 42.6 29.8 1019.8 11.3 S 19.4 SSW 0.0 77.0
13:05 34.0 42.3 29.8 1019.8 13.1 S 28.2 SSE 0.0 61.4
13:10 34.6 42.1 29.8 1019.7 13.3 SW 23.0 SSW 0.0 67.9
13:15 34.7 42.5 29.6 1019.7 14.0 SSW 25.8 SW 0.0 66.3
13:20 34.6 42.7 29.7 1019.8 17.2 SSW 28.6 SSW 0.0 53.2
13:25 34.1 42.0 30.5 1019.9 15.1 S 26.8 S 0.0 62.4
13:30 34.1 41.3 31.1 1020.0 18.2 SSW 28.9 S 0.0 53.9
13:35 34.2 41.1 31.8 1020.0 13.7 SSW 21.5 SSW 0.0 62.0
13:40 34.2 41.3 31.3 1019.9 17.7 SSW 28.6 S 0.0 60.1
13:45 33.8 41.1 32.4 1019.8 12.4 S 23.0 S 0.0 62.6
13:50 33.9 40.8 32.3 1019.7 17.2 S 30.7 SSE 0.0 50.1
13:55 33.3 39.9 32.8 1019.7 17.8 S 30.4 S 0.0 48.3
14:00 33.7 39.8 32.7 1019.8 15.5 SSW 24.7 SW 0.0 54.6
14:05 33.6 40.0 32.5 1019.9 16.1 S 28.6 S 0.0 51.3
14:10 33.1 39.5 33.1 1019.9 16.4 S 28.9 SSW 0.0 56.9
14:15 32.8 38.9 33.6 1019.9 19.5 S 30.7 SSE 0.0 60.1
14:20 32.9 38.6 33.5 1019.7 17.2 S 28.6 SSE 0.0 53.9
14:25 32.9 38.6 33.2 1019.7 17.0 S 27.2 S 0.0 62.5
14:30 33.2 38.7 33.2 1019.7 14.3 S 25.1 SSE 0.0 57.2
14:35 33.1 38.9 32.8 1019.7 16.0 S 26.8 S 0.0 54.5
14:40 32.8 38.6 33.4 1019.7 16.3 SSE 26.1 SSE 0.0 47.9
14:45 32.7 38.0 33.8 1019.6 17.5 S 31.4 SSE 0.0 54.8
14:50 32.6 37.7 33.9 1019.5 16.9 S 30.4 S 0.0 60.7
14:55 32.5 37.4 34.5 1019.4 15.8 S 29.7 SSW 0.0 50.6
15:00 32.7 37.5 34.2 1019.5 14.3 SSW 28.2 SSW 0.0 47.6
15:05 32.5 37.6 34.0 1019.6 19.4 S 33.5 SSE 0.0 47.0
Màxima 34.7 42.9 96.4 1021.8 19.5 S 33.5 SSE 0.0 357.7
Mínima 15.2 13.3 29.6 1019.4
Total 0.0